createdAt,value
2022-12-22T00:00:02.730Z,6.43
2022-12-22T00:02:52.373Z,6.36
2022-12-22T00:05:43.028Z,6.32
2022-12-22T00:08:32.355Z,6.31
2022-12-22T00:11:20.600Z,6.22
2022-12-22T00:14:09.173Z,6.34
2022-12-22T00:16:58.175Z,6.28
2022-12-22T00:19:47.903Z,6.50
2022-12-22T00:22:39.094Z,6.36
2022-12-22T00:25:31.457Z,6.46
2022-12-22T00:28:22.357Z,6.32
2022-12-22T00:31:11.009Z,6.48
2022-12-22T00:34:00.223Z,6.42
2022-12-22T00:36:50.244Z,6.38
2022-12-22T00:39:38.821Z,6.44
2022-12-22T00:42:27.193Z,6.36
2022-12-22T00:45:16.798Z,6.32
2022-12-22T00:48:07.163Z,6.42
2022-12-22T00:50:56.395Z,6.36
2022-12-22T00:53:44.790Z,6.43
2022-12-22T00:56:34.639Z,6.53
2022-12-22T00:59:23.082Z,6.54
2022-12-22T01:02:13.252Z,6.45
2022-12-22T01:05:02.503Z,6.50
2022-12-22T01:07:51.289Z,6.50
2022-12-22T01:10:44.015Z,6.58
2022-12-22T01:13:34.566Z,6.56
2022-12-22T01:16:22.922Z,6.65
2022-12-22T01:19:12.619Z,6.50
2022-12-22T01:22:01.525Z,6.59
2022-12-22T01:24:50.465Z,6.59
2022-12-22T01:27:39.011Z,6.56
2022-12-22T01:30:28.300Z,6.60
2022-12-22T01:33:17.469Z,6.68
2022-12-22T01:36:06.242Z,6.65
2022-12-22T01:38:54.983Z,6.71
2022-12-22T01:41:43.299Z,6.66
2022-12-22T01:44:34.319Z,6.69
2022-12-22T01:47:48.080Z,6.54
2022-12-22T01:50:39.368Z,6.72
2022-12-22T01:53:31.197Z,6.60
2022-12-22T01:56:21.215Z,6.56
2022-12-22T01:59:15.245Z,6.58
2022-12-22T02:02:04.311Z,6.59
2022-12-22T02:04:56.110Z,6.60
2022-12-22T02:07:57.063Z,6.56
2022-12-22T02:11:00.829Z,6.53
2022-12-22T02:14:04.391Z,6.42
2022-12-22T02:17:08.215Z,6.54
2022-12-22T02:20:18.021Z,6.54
2022-12-22T02:23:18.861Z,6.61
2022-12-22T02:26:29.750Z,6.55
2022-12-22T02:29:18.785Z,6.48
2022-12-22T02:32:07.736Z,6.60
2022-12-22T02:34:55.994Z,6.56
2022-12-22T02:37:59.669Z,6.55
2022-12-22T02:41:24.561Z,6.56
2022-12-22T02:44:27.839Z,6.58
2022-12-22T02:47:20.520Z,6.63
2022-12-22T02:50:20.762Z,6.52
2022-12-22T02:53:10.443Z,6.76
2022-12-22T02:55:59.298Z,6.70
2022-12-22T02:58:53.693Z,6.70
2022-12-22T03:01:42.824Z,6.70
2022-12-22T03:04:31.644Z,6.68
2022-12-22T03:07:20.324Z,6.70
2022-12-22T03:10:08.603Z,6.67
2022-12-22T03:12:58.444Z,6.76
2022-12-22T03:15:47.805Z,6.80
2022-12-22T03:18:36.596Z,6.80
2022-12-22T03:21:24.820Z,6.80
2022-12-22T03:24:13.218Z,6.72
2022-12-22T03:26:43.928Z,6.70
2022-12-22T03:29:14.499Z,6.70
2022-12-22T03:31:45.431Z,6.62
2022-12-22T03:34:16.138Z,6.68
2022-12-22T03:36:50.082Z,6.68
2022-12-22T03:39:20.660Z,6.62
2022-12-22T03:42:09.950Z,6.58
2022-12-22T03:44:58.657Z,6.64
2022-12-22T03:47:30.577Z,6.64
2022-12-22T03:50:01.133Z,6.55
2022-12-22T03:52:31.624Z,6.57
2022-12-22T03:55:02.216Z,6.58
2022-12-22T03:57:33.704Z,6.70
2022-12-22T04:00:06.522Z,6.66
2022-12-22T04:02:36.978Z,6.61
2022-12-22T04:05:08.673Z,6.60
2022-12-22T04:07:39.147Z,6.56
2022-12-22T04:10:29.200Z,6.51
2022-12-22T04:12:59.699Z,6.50
2022-12-22T04:15:32.545Z,6.48
2022-12-22T04:18:03.069Z,6.52
2022-12-22T04:20:33.927Z,6.62
2022-12-22T04:23:04.950Z,6.58
2022-12-22T04:25:35.728Z,6.60
2022-12-22T04:28:06.486Z,6.64
2022-12-22T04:30:37.033Z,6.62
2022-12-22T04:33:07.686Z,6.69
2022-12-22T04:35:38.205Z,6.74
2022-12-22T04:38:09.060Z,6.64
2022-12-22T04:40:39.517Z,6.69
2022-12-22T04:43:10.322Z,6.66
2022-12-22T04:45:41.406Z,6.76
2022-12-22T04:48:12.305Z,6.62
2022-12-22T04:50:42.735Z,6.65
2022-12-22T04:53:15.758Z,6.57
2022-12-22T04:55:51.269Z,6.66
2022-12-22T04:58:22.460Z,6.59
2022-12-22T05:00:53.592Z,6.60
2022-12-22T05:03:24.771Z,6.65
2022-12-22T05:05:55.320Z,6.62
2022-12-22T05:08:25.804Z,6.65
2022-12-22T05:10:56.370Z,6.73
2022-12-22T05:13:26.844Z,6.73
2022-12-22T05:16:12.678Z,6.77
2022-12-22T05:18:44.943Z,6.80
2022-12-22T05:21:20.034Z,6.82
2022-12-22T05:23:51.609Z,6.84
2022-12-22T05:26:22.545Z,6.79
2022-12-22T05:28:54.331Z,6.90
2022-12-22T05:31:28.609Z,6.84
2022-12-22T05:34:01.225Z,6.82
2022-12-22T05:36:34.478Z,6.78
2022-12-22T05:39:05.063Z,6.94
2022-12-22T05:41:35.467Z,6.85
2022-12-22T05:44:07.284Z,6.91
2022-12-22T05:46:37.918Z,6.86
2022-12-22T05:49:11.671Z,6.90
2022-12-22T05:51:43.531Z,6.98
2022-12-22T05:54:15.621Z,7.06
2022-12-22T05:56:47.606Z,6.94
2022-12-22T05:59:18.361Z,6.90
2022-12-22T06:01:51.069Z,6.94
2022-12-22T06:04:23.427Z,6.99
2022-12-22T06:06:54.028Z,7.01
2022-12-22T06:09:24.542Z,6.92
2022-12-22T06:11:55.553Z,6.96
2022-12-22T06:14:26.381Z,6.97
2022-12-22T06:16:57.183Z,7.06
2022-12-22T06:19:27.835Z,6.92
2022-12-22T06:21:59.586Z,6.99
2022-12-22T06:24:30.299Z,7.00
2022-12-22T06:27:03.471Z,7.01
2022-12-22T06:29:36.316Z,7.01
2022-12-22T06:32:07.146Z,6.92
2022-12-22T06:34:39.031Z,6.97
2022-12-22T06:37:09.547Z,7.06
2022-12-22T06:39:40.470Z,7.08
2022-12-22T06:42:30.338Z,7.19
2022-12-22T06:45:01.250Z,7.06
2022-12-22T06:47:31.787Z,7.08
2022-12-22T06:50:02.538Z,7.00
2022-12-22T06:52:33.139Z,7.04
2022-12-22T06:55:03.781Z,7.05
2022-12-22T06:57:34.500Z,7.12
2022-12-22T07:00:09.204Z,7.02
2022-12-22T07:02:39.867Z,7.13
2022-12-22T07:05:11.395Z,7.13
2022-12-22T07:07:43.580Z,7.18
2022-12-22T07:10:15.980Z,7.08
2022-12-22T07:12:48.492Z,7.04
2022-12-22T07:15:19.384Z,7.08
2022-12-22T07:17:49.923Z,7.28
2022-12-22T07:20:20.444Z,7.11
2022-12-22T07:22:50.885Z,7.19
2022-12-22T07:25:21.538Z,7.24
2022-12-22T07:27:52.643Z,7.14
2022-12-22T07:30:23.060Z,7.14
2022-12-22T07:32:53.687Z,7.12
2022-12-22T07:35:24.687Z,7.14
2022-12-22T07:37:55.557Z,7.18
2022-12-22T07:40:29.224Z,7.15
2022-12-22T07:43:01.305Z,7.10
2022-12-22T07:45:33.467Z,7.18
2022-12-22T07:48:09.390Z,7.29
2022-12-22T07:50:42.104Z,7.20
2022-12-22T07:53:15.721Z,7.18
2022-12-22T07:55:46.533Z,7.22
2022-12-22T07:58:17.853Z,7.14
2022-12-22T08:00:49.269Z,7.18
2022-12-22T08:03:20.086Z,7.20
2022-12-22T08:05:51.427Z,7.12
2022-12-22T08:08:21.927Z,7.20
2022-12-22T08:10:54.042Z,7.22
2022-12-22T08:13:24.731Z,7.13
2022-12-22T08:15:56.578Z,7.20
2022-12-22T08:18:28.408Z,7.33
2022-12-22T08:20:58.810Z,7.34
2022-12-22T08:23:29.688Z,7.26
2022-12-22T08:26:05.721Z,7.32
2022-12-22T08:31:45.506Z,7.35
2022-12-22T08:34:17.200Z,7.42
2022-12-22T08:36:51.127Z,7.42
2022-12-22T08:39:23.250Z,7.56
2022-12-22T08:41:55.644Z,7.48
2022-12-22T08:44:29.887Z,7.50
2022-12-22T08:47:01.510Z,7.60
2022-12-22T08:49:33.073Z,7.55
2022-12-22T08:52:06.709Z,7.63
2022-12-22T08:54:37.208Z,7.65
2022-12-22T08:57:13.008Z,7.79
2022-12-22T08:59:43.911Z,7.85
2022-12-22T09:02:15.257Z,7.78
2022-12-22T09:04:49.020Z,7.80
2022-12-22T09:07:19.549Z,7.78
2022-12-22T09:09:53.856Z,7.74
2022-12-22T09:12:25.195Z,7.70
2022-12-22T09:14:59.941Z,7.71
2022-12-22T09:17:31.018Z,7.79
2022-12-22T09:20:04.764Z,7.77
2022-12-22T09:22:36.480Z,7.76
2022-12-22T09:25:10.321Z,7.78
2022-12-22T09:27:41.389Z,7.79
2022-12-22T09:30:13.835Z,7.92
2022-12-22T09:32:45.347Z,7.89
2022-12-22T09:35:15.893Z,7.86
2022-12-22T09:37:46.368Z,7.87
2022-12-22T09:40:21.200Z,7.86
2022-12-22T09:42:51.818Z,7.90
2022-12-22T09:45:24.320Z,7.89
2022-12-22T09:47:56.854Z,7.94
2022-12-22T09:50:28.757Z,7.97
2022-12-22T09:53:03.268Z,7.84
2022-12-22T09:55:42.512Z,7.92
2022-12-22T09:58:26.164Z,7.96
2022-12-22T10:01:14.089Z,8.00
2022-12-22T10:03:59.903Z,8.02
2022-12-22T10:06:40.221Z,8.04
2022-12-22T10:09:46.224Z,8.08
2022-12-22T10:11:58.267Z,8.08
2022-12-22T10:14:38.972Z,8.20
2022-12-22T10:17:32.844Z,8.10
2022-12-22T10:20:12.231Z,8.22
2022-12-22T10:23:00.222Z,8.10
2022-12-22T10:26:27.868Z,8.16
2022-12-22T10:28:45.533Z,8.21
2022-12-22T10:31:31.666Z,8.27
2022-12-22T10:34:16.934Z,8.17
2022-12-22T10:36:53.428Z,8.24
2022-12-22T10:39:27.865Z,8.21
2022-12-22T10:42:12.953Z,8.34
2022-12-22T10:44:47.733Z,8.40
2022-12-22T10:47:24.576Z,8.42
2022-12-22T10:52:34.522Z,8.50
2022-12-22T10:55:22.812Z,8.40
2022-12-22T10:57:57.022Z,8.44
2022-12-22T11:00:31.451Z,8.44
2022-12-22T11:03:04.644Z,8.52
2022-12-22T11:05:37.103Z,8.48
2022-12-22T11:08:22.194Z,8.48
2022-12-22T11:10:55.747Z,8.48
2022-12-22T11:13:54.186Z,8.54
2022-12-22T11:16:30.814Z,8.62
2022-12-22T11:19:21.466Z,8.61
2022-12-22T11:22:13.952Z,8.80
2022-12-22T11:25:02.111Z,8.72
2022-12-22T11:27:53.097Z,8.92
2022-12-22T11:30:33.125Z,8.83
2022-12-22T11:33:33.919Z,8.96
2022-12-22T11:36:10.001Z,9.06
2022-12-22T11:39:06.211Z,9.00
2022-12-22T11:41:40.215Z,9.23
2022-12-22T11:44:30.183Z,9.22
2022-12-22T11:47:21.056Z,9.22
2022-12-22T11:50:59.767Z,9.33
2022-12-22T11:52:58.658Z,9.20
2022-12-22T11:55:35.952Z,9.22
2022-12-22T11:58:09.577Z,9.19
2022-12-22T12:01:13.621Z,9.16
2022-12-22T12:03:38.230Z,9.24
2022-12-22T12:06:32.231Z,9.28
2022-12-22T12:09:17.184Z,9.28
2022-12-22T12:12:48.078Z,9.38
2022-12-22T12:15:09.079Z,9.33
2022-12-22T12:17:51.816Z,9.28
2022-12-22T12:20:27.944Z,9.38
2022-12-22T12:23:04.315Z,9.24
2022-12-22T12:25:43.824Z,9.32
2022-12-22T12:28:40.875Z,9.38
2022-12-22T12:31:26.282Z,9.31
2022-12-22T12:33:56.880Z,9.36
2022-12-22T12:36:49.918Z,9.28
2022-12-22T12:39:53.472Z,9.35
2022-12-22T12:42:33.903Z,9.36
2022-12-22T12:45:05.502Z,9.28
2022-12-22T12:47:37.358Z,9.38
2022-12-22T12:50:19.236Z,9.40
2022-12-22T12:52:52.835Z,9.36
2022-12-22T12:55:43.354Z,9.24
2022-12-22T12:58:15.963Z,9.34
2022-12-22T13:00:56.960Z,9.33
2022-12-22T13:04:01.933Z,9.32
2022-12-22T13:06:06.499Z,9.38
2022-12-22T13:09:48.736Z,9.46
2022-12-22T13:14:30.859Z,9.40
2022-12-22T13:17:20.981Z,9.21
2022-12-22T13:19:54.451Z,9.13
2022-12-22T13:22:28.009Z,9.22
2022-12-22T13:25:00.531Z,9.17
2022-12-22T13:27:32.242Z,9.38
2022-12-22T13:30:04.653Z,9.31
2022-12-22T13:32:36.783Z,9.29
2022-12-22T13:35:34.704Z,9.22
2022-12-22T13:37:57.820Z,9.12
2022-12-22T13:40:43.972Z,9.20
2022-12-22T13:43:16.919Z,9.12
2022-12-22T13:45:49.628Z,9.29
2022-12-22T13:48:30.539Z,9.08
2022-12-22T13:51:08.629Z,8.97
2022-12-22T13:54:08.296Z,9.14
2022-12-22T13:56:28.706Z,9.08
2022-12-22T13:59:03.775Z,9.09
2022-12-22T14:01:34.648Z,9.06
2022-12-22T14:04:07.931Z,9.00
2022-12-22T14:06:42.814Z,8.84
2022-12-22T14:09:19.523Z,8.92
2022-12-22T14:11:54.959Z,9.06
2022-12-22T14:14:31.889Z,8.87
2022-12-22T14:17:04.923Z,9.01
2022-12-22T14:19:38.531Z,8.83
2022-12-22T14:22:16.479Z,8.78
2022-12-22T14:24:52.221Z,8.94
2022-12-22T14:27:37.934Z,8.84
2022-12-22T14:30:17.644Z,8.80
2022-12-22T14:32:54.865Z,8.78
2022-12-22T14:35:30.648Z,8.69
2022-12-22T14:38:17.303Z,8.76
2022-12-22T14:40:54.624Z,8.70
2022-12-22T14:43:25.713Z,8.65
2022-12-22T14:46:08.045Z,8.69
2022-12-22T14:48:42.027Z,8.60
2022-12-22T14:51:20.421Z,8.60
2022-12-22T14:53:59.005Z,8.62
2022-12-22T14:56:32.020Z,8.60
2022-12-22T14:59:13.095Z,8.62
2022-12-22T15:01:46.830Z,8.53
2022-12-22T15:04:20.199Z,8.55
2022-12-22T15:06:52.213Z,8.52
2022-12-22T15:12:10.350Z,8.52
2022-12-22T15:14:46.687Z,8.54
2022-12-22T15:17:29.990Z,8.50
2022-12-22T15:20:01.038Z,8.56
2022-12-22T15:22:33.220Z,8.62
2022-12-22T15:25:08.399Z,8.52
2022-12-22T15:27:42.234Z,8.54
2022-12-22T15:30:15.776Z,8.56
2022-12-22T15:32:47.147Z,8.62
2022-12-22T15:35:36.204Z,8.50
2022-12-22T15:38:10.700Z,8.54
2022-12-22T15:40:41.780Z,8.58
2022-12-22T15:43:54.020Z,8.60
2022-12-22T15:45:48.723Z,8.52
2022-12-22T15:48:25.257Z,8.52
2022-12-22T15:50:58.212Z,8.56
2022-12-22T15:53:28.746Z,8.58
2022-12-22T15:55:59.360Z,8.52
2022-12-22T15:58:35.674Z,8.54
2022-12-22T16:01:07.082Z,8.45
2022-12-22T16:03:37.827Z,8.45
2022-12-22T16:06:10.181Z,8.46
2022-12-22T16:08:42.803Z,8.40
2022-12-22T16:11:15.125Z,8.34
2022-12-22T16:13:48.382Z,8.34
2022-12-22T16:16:19.048Z,8.32
2022-12-22T16:18:51.905Z,8.33
2022-12-22T16:21:25.751Z,8.27
2022-12-22T16:23:57.103Z,8.28
2022-12-22T16:26:30.353Z,8.30
2022-12-22T16:29:03.185Z,8.24
2022-12-22T16:31:37.001Z,8.26
2022-12-22T16:34:09.756Z,8.26
2022-12-22T16:36:40.920Z,8.26
2022-12-22T16:39:13.346Z,8.22
2022-12-22T16:41:46.848Z,8.14
2022-12-22T16:47:15.082Z,7.95
2022-12-22T16:49:48.260Z,7.87
2022-12-22T16:52:26.244Z,7.83
2022-12-22T16:54:58.313Z,7.74
2022-12-22T16:57:28.821Z,7.68
2022-12-22T17:00:00.294Z,7.66
2022-12-22T17:02:33.294Z,7.71
2022-12-22T17:05:06.937Z,7.74
2022-12-22T17:07:37.747Z,7.69
2022-12-22T17:10:10.454Z,7.76
2022-12-22T17:12:41.142Z,7.72
2022-12-22T17:15:21.625Z,7.70
2022-12-22T17:17:53.452Z,7.70
2022-12-22T17:20:26.549Z,7.69
2022-12-22T17:23:00.559Z,7.61
2022-12-22T17:25:32.392Z,7.59
2022-12-22T17:28:03.195Z,7.52
2022-12-22T17:30:34.314Z,7.58
2022-12-22T17:33:04.858Z,7.57
2022-12-22T17:35:37.866Z,7.60
2022-12-22T17:38:11.356Z,7.65
2022-12-22T17:40:43.709Z,7.61
2022-12-22T17:43:23.430Z,7.60
2022-12-22T17:45:54.472Z,7.56
2022-12-22T17:48:24.856Z,7.50
2022-12-22T17:50:55.421Z,7.50
2022-12-22T17:53:28.419Z,7.47
2022-12-22T17:56:09.656Z,7.48
2022-12-22T17:58:35.248Z,7.56
2022-12-22T18:01:05.926Z,7.62
2022-12-22T18:03:36.394Z,7.73
2022-12-22T18:06:14.243Z,7.56
2022-12-22T18:08:43.256Z,7.47
2022-12-22T18:11:14.921Z,7.34
2022-12-22T18:13:47.260Z,7.34
2022-12-22T18:16:20.391Z,7.30
2022-12-22T18:18:50.877Z,7.32
2022-12-22T18:21:26.313Z,7.26
2022-12-22T18:23:57.199Z,7.17
2022-12-22T18:26:29.854Z,7.30
2022-12-22T18:29:01.750Z,7.28
2022-12-22T18:31:32.421Z,7.14
2022-12-22T18:34:05.195Z,7.11
2022-12-22T18:36:37.335Z,7.26
2022-12-22T18:39:17.304Z,7.42
2022-12-22T18:41:48.803Z,7.39
2022-12-22T18:44:20.167Z,7.48
2022-12-22T18:46:50.880Z,7.31
2022-12-22T18:49:22.073Z,7.25
2022-12-22T18:51:52.470Z,7.34
2022-12-22T18:54:34.472Z,7.21
2022-12-22T18:57:08.031Z,7.16
2022-12-22T18:59:40.777Z,7.04
2022-12-22T19:02:29.263Z,7.06
2022-12-22T19:04:59.966Z,7.04
2022-12-22T19:07:32.654Z,6.90
2022-12-22T19:10:03.159Z,6.89
2022-12-22T19:12:35.234Z,6.80
2022-12-22T19:15:10.353Z,6.60
2022-12-22T19:17:42.291Z,6.68
2022-12-22T19:20:19.319Z,6.60
2022-12-22T19:22:51.158Z,6.62
2022-12-22T19:25:26.013Z,6.73
2022-12-22T19:27:58.563Z,6.70
2022-12-22T19:30:31.781Z,6.64
2022-12-22T19:33:06.828Z,6.62
2022-12-22T19:35:39.038Z,6.80
2022-12-22T19:38:15.607Z,6.73
2022-12-22T19:40:47.048Z,6.81
2022-12-22T19:43:19.399Z,6.69
2022-12-22T19:45:52.592Z,6.80
2022-12-22T19:48:25.498Z,6.86
2022-12-22T19:50:58.792Z,6.80
2022-12-22T19:53:33.182Z,6.68
2022-12-22T19:56:04.905Z,6.62
2022-12-22T19:58:41.320Z,6.54
2022-12-22T20:01:13.196Z,6.56
2022-12-22T20:03:44.038Z,6.59
2022-12-22T20:06:18.519Z,6.34
2022-12-22T20:08:48.992Z,6.38
2022-12-22T20:11:21.297Z,6.37
2022-12-22T20:13:52.162Z,6.46
2022-12-22T20:16:24.582Z,6.52
2022-12-22T20:18:55.487Z,6.47
2022-12-22T20:21:30.833Z,6.48
2022-12-22T20:24:02.004Z,6.58
2022-12-22T20:26:32.571Z,6.69
2022-12-22T20:29:05.361Z,6.68
2022-12-22T20:31:36.218Z,6.76
2022-12-22T20:34:11.067Z,6.80
2022-12-22T20:36:43.189Z,6.60
2022-12-22T20:39:17.638Z,6.76
2022-12-22T20:41:53.278Z,6.78
2022-12-22T20:44:24.276Z,6.68
2022-12-22T20:46:54.729Z,6.80
2022-12-22T20:49:25.317Z,6.66
2022-12-22T20:51:55.981Z,6.66
2022-12-22T20:54:26.527Z,6.65
2022-12-22T20:56:58.385Z,6.54
2022-12-22T20:59:30.635Z,6.71
2022-12-22T21:02:02.731Z,6.68
2022-12-22T21:04:35.063Z,6.76
2022-12-22T21:07:05.730Z,6.99
2022-12-22T21:09:36.697Z,6.74
2022-12-22T21:12:07.562Z,6.88
2022-12-22T21:14:39.769Z,6.67
2022-12-22T21:17:17.663Z,6.78
2022-12-22T21:19:48.797Z,6.88
2022-12-22T21:22:19.259Z,6.74
2022-12-22T21:24:50.008Z,6.61
2022-12-22T21:27:21.976Z,6.56
2022-12-22T21:29:53.780Z,6.64
2022-12-22T21:32:24.195Z,6.62
2022-12-22T21:34:58.239Z,6.56
2022-12-22T21:37:29.054Z,6.80
2022-12-22T21:39:59.739Z,6.67
2022-12-22T21:42:30.422Z,6.63
2022-12-22T21:45:00.899Z,6.62
2022-12-22T21:47:32.763Z,6.58
2022-12-22T21:50:05.065Z,6.72
2022-12-22T21:52:36.806Z,6.68
2022-12-22T21:55:09.109Z,6.62
2022-12-22T21:57:39.769Z,6.56
2022-12-22T22:00:16.886Z,6.52
2022-12-22T22:02:48.176Z,6.52
2022-12-22T22:05:37.095Z,6.43
2022-12-22T22:08:14.506Z,6.55
2022-12-22T22:10:47.256Z,6.55
2022-12-22T22:13:19.123Z,6.61
2022-12-22T22:15:52.357Z,6.61
2022-12-22T22:18:22.792Z,6.64
2022-12-22T22:20:54.300Z,6.54
2022-12-22T22:23:24.741Z,6.56
2022-12-22T22:26:01.343Z,6.65
2022-12-22T22:28:32.215Z,6.60
2022-12-22T22:31:05.376Z,6.78
2022-12-22T22:33:35.867Z,6.49
2022-12-22T22:36:08.998Z,6.70
2022-12-22T22:38:41.050Z,6.60
2022-12-22T22:41:13.017Z,6.68
2022-12-22T22:43:43.474Z,6.53
2022-12-22T22:46:15.981Z,6.51
2022-12-22T22:48:48.703Z,6.37
2022-12-22T22:51:20.052Z,6.48
2022-12-22T22:53:51.185Z,6.56
2022-12-22T22:56:23.008Z,6.52
2022-12-22T22:58:54.979Z,6.63
2022-12-22T23:01:25.493Z,6.62
2022-12-22T23:03:56.350Z,6.65
2022-12-22T23:06:27.986Z,6.62
2022-12-22T23:09:01.089Z,6.81
2022-12-22T23:11:31.519Z,7.22
2022-12-22T23:14:02.285Z,7.09
2022-12-22T23:16:38.335Z,6.90
2022-12-22T23:19:07.569Z,7.02
2022-12-22T23:21:39.667Z,6.90
2022-12-22T23:24:11.018Z,6.98
2022-12-22T23:26:41.494Z,7.00
2022-12-22T23:29:12.029Z,6.98
2022-12-22T23:31:44.202Z,6.88
2022-12-22T23:34:17.864Z,7.02
2022-12-22T23:36:48.321Z,6.82
2022-12-22T23:39:19.767Z,6.96
2022-12-22T23:41:51.527Z,6.84
2022-12-22T23:44:23.164Z,7.12
2022-12-22T23:46:53.627Z,7.02
2022-12-22T23:49:24.635Z,6.88
2022-12-22T23:51:55.183Z,6.94
2022-12-22T23:54:25.731Z,6.88
2022-12-22T23:56:57.192Z,6.94
2022-12-22T23:59:29.863Z,6.90
